createdAt,value
2022-08-20T00:04:10.384Z,23.56
2022-08-20T00:09:12.884Z,23.58
2022-08-20T00:14:14.482Z,23.56
2022-08-20T00:19:15.923Z,23.52
2022-08-20T00:24:17.440Z,23.56
2022-08-20T00:29:20.120Z,23.54
2022-08-20T00:34:21.936Z,23.55
2022-08-20T00:39:23.475Z,23.50
2022-08-20T00:44:25.218Z,23.43
2022-08-20T00:49:30.735Z,23.50
2022-08-20T00:54:43.971Z,23.51
2022-08-20T00:59:45.319Z,23.56
2022-08-20T01:04:56.686Z,23.55
2022-08-20T01:09:59.965Z,23.49
2022-08-20T01:15:02.824Z,23.57
2022-08-20T01:20:17.497Z,23.54
2022-08-20T01:25:33.099Z,23.54
2022-08-20T01:30:34.942Z,23.44
2022-08-20T01:35:41.431Z,23.53
2022-08-20T01:41:02.330Z,23.45
2022-08-20T01:46:04.118Z,23.52
2022-08-20T01:51:23.478Z,23.48
2022-08-20T01:56:28.834Z,23.50
2022-08-20T02:01:46.394Z,23.46
2022-08-20T02:06:56.977Z,23.51
2022-08-20T02:12:00.093Z,23.53
2022-08-20T02:17:01.542Z,23.54
2022-08-20T02:22:11.010Z,23.52
2022-08-20T02:27:13.426Z,23.52
2022-08-20T02:32:24.468Z,23.47
2022-08-20T02:37:36.698Z,23.48
2022-08-20T02:42:42.425Z,23.50
2022-08-20T02:47:45.465Z,23.51
2022-08-20T02:52:51.890Z,23.48
2022-08-20T02:57:58.682Z,23.47
2022-08-20T03:03:01.955Z,23.36
2022-08-20T03:08:04.209Z,23.36
2022-08-20T03:13:06.727Z,23.39
2022-08-20T03:18:08.135Z,23.28
2022-08-20T03:23:09.732Z,23.37
2022-08-20T03:28:11.485Z,23.44
2022-08-20T03:33:13.042Z,23.37
2022-08-20T03:38:17.438Z,23.41
2022-08-20T03:43:22.211Z,23.36
2022-08-20T03:48:23.772Z,23.32
2022-08-20T03:53:25.170Z,23.20
2022-08-20T03:58:36.112Z,23.20
2022-08-20T04:03:38.141Z,23.22
2022-08-20T04:08:41.491Z,23.21
2022-08-20T04:13:43.490Z,23.16
2022-08-20T04:19:01.730Z,23.12
2022-08-20T04:24:05.761Z,23.21
2022-08-20T04:29:07.301Z,23.19
2022-08-20T04:34:08.782Z,23.10
2022-08-20T04:39:10.247Z,23.14
2022-08-20T04:44:11.714Z,23.14
2022-08-20T04:49:13.198Z,22.94
2022-08-20T04:54:14.670Z,23.02
2022-08-20T04:59:16.304Z,23.08
2022-08-20T05:04:17.715Z,23.13
2022-08-20T05:09:19.205Z,23.04
2022-08-20T05:14:20.658Z,23.17
2022-08-20T05:19:22.365Z,23.15
2022-08-20T05:24:24.479Z,23.09
2022-08-20T05:29:26.045Z,23.13
2022-08-20T05:34:27.429Z,23.18
2022-08-20T05:39:28.818Z,23.22
2022-08-20T05:44:31.431Z,23.32
2022-08-20T05:49:34.006Z,23.46
2022-08-20T05:54:37.596Z,23.65
2022-08-20T05:59:39.587Z,23.41
2022-08-20T06:04:41.320Z,23.29
2022-08-20T06:09:44.489Z,23.39
2022-08-20T06:14:47.306Z,23.34
2022-08-20T06:19:49.199Z,23.34
2022-08-20T06:24:51.560Z,23.40
2022-08-20T06:29:54.094Z,23.55
2022-08-20T06:34:55.558Z,23.58
2022-08-20T06:40:02.864Z,23.58
2022-08-20T06:45:05.774Z,23.48
2022-08-20T06:50:09.926Z,23.53
2022-08-20T06:55:11.458Z,23.65
2022-08-20T07:00:19.476Z,23.69
2022-08-20T07:05:20.867Z,23.69
2022-08-20T07:10:24.672Z,23.69
2022-08-20T07:15:27.230Z,23.59
2022-08-20T07:20:31.546Z,23.57
2022-08-20T07:25:33.786Z,23.52
2022-08-20T07:30:57.115Z,23.54
2022-08-20T07:36:03.995Z,23.54
2022-08-20T07:41:13.212Z,23.58
2022-08-20T07:46:21.351Z,23.76
2022-08-20T07:51:22.953Z,23.76
2022-08-20T07:56:24.674Z,23.64
2022-08-20T08:01:30.426Z,23.52
2022-08-20T08:06:32.463Z,23.55
2022-08-20T08:11:37.863Z,24.03
2022-08-20T08:16:39.872Z,24.51
2022-08-20T08:21:42.000Z,24.44
2022-08-20T08:26:44.129Z,24.84
2022-08-20T08:31:45.622Z,25.44
2022-08-20T08:36:47.318Z,25.83
2022-08-20T08:41:50.780Z,25.73
2022-08-20T08:46:59.222Z,25.58
2022-08-20T08:52:08.534Z,25.79
2022-08-20T08:57:10.516Z,25.95
2022-08-20T09:02:20.269Z,26.46
2022-08-20T09:07:24.768Z,27.01
2022-08-20T09:12:27.694Z,26.39
2022-08-20T09:17:29.123Z,26.83
2022-08-20T09:22:33.285Z,26.78
2022-08-20T09:27:34.669Z,26.19
2022-08-20T09:32:37.608Z,25.94
2022-08-20T09:37:39.545Z,26.04
2022-08-20T09:42:41.867Z,26.08
2022-08-20T09:47:56.671Z,26.17
2022-08-20T09:53:01.076Z,27.02
2022-08-20T09:58:06.365Z,27.73
2022-08-20T10:03:07.828Z,27.90
2022-08-20T10:08:11.092Z,27.65
2022-08-20T10:13:12.763Z,27.49
2022-08-20T10:18:16.795Z,27.12
2022-08-20T10:23:18.228Z,26.79
2022-08-20T10:28:19.637Z,28.08
2022-08-20T10:33:21.134Z,30.10
2022-08-20T10:38:22.575Z,32.38
2022-08-20T10:43:23.971Z,30.81
2022-08-20T10:48:25.950Z,29.90
2022-08-20T10:53:27.489Z,28.95
2022-08-20T10:58:37.503Z,28.17
2022-08-20T11:03:40.755Z,33.06
2022-08-20T11:08:42.203Z,34.87
2022-08-20T11:13:43.490Z,31.29
2022-08-20T11:18:47.354Z,30.11
2022-08-20T11:23:49.289Z,35.86
2022-08-20T11:28:51.320Z,34.04
2022-08-20T11:33:52.752Z,31.25
2022-08-20T11:38:54.217Z,29.87
2022-08-20T11:44:20.287Z,30.98
2022-08-20T11:49:17.050Z,35.21
2022-08-20T11:54:18.553Z,35.61
2022-08-20T11:59:20.859Z,33.83
2022-08-20T12:04:22.452Z,31.58
2022-08-20T12:09:26.653Z,30.48
2022-08-20T12:14:28.018Z,29.61
2022-08-20T12:19:29.572Z,29.47
2022-08-20T12:24:30.953Z,29.30
2022-08-20T12:29:33.423Z,29.26
2022-08-20T12:34:36.686Z,30.06
2022-08-20T12:39:39.854Z,30.79
2022-08-20T12:44:41.712Z,30.50
2022-08-20T12:49:46.388Z,31.13
2022-08-20T12:54:48.354Z,30.98
2022-08-20T12:59:49.773Z,31.57
2022-08-20T13:04:51.190Z,31.82
2022-08-20T13:09:52.645Z,32.00
2022-08-20T13:14:53.921Z,31.67
2022-08-20T13:19:55.371Z,32.04
2022-08-20T13:24:56.717Z,31.84
2022-08-20T13:29:59.172Z,31.83
2022-08-20T13:35:00.719Z,30.91
2022-08-20T13:40:02.333Z,30.54
2022-08-20T13:45:04.046Z,31.05
2022-08-20T13:50:17.516Z,31.33
2022-08-20T13:55:22.053Z,30.73
2022-08-20T14:00:31.809Z,30.61
2022-08-20T14:05:34.528Z,30.47
2022-08-20T14:10:37.089Z,30.76
2022-08-20T14:15:38.955Z,30.72
2022-08-20T14:20:40.934Z,30.71
2022-08-20T14:25:45.983Z,30.80
2022-08-20T14:30:53.440Z,30.65
2022-08-20T14:35:55.692Z,30.39
2022-08-20T14:40:57.589Z,30.06
2022-08-20T14:45:58.944Z,29.52
2022-08-20T14:51:00.770Z,29.15
2022-08-20T14:56:02.309Z,29.03
2022-08-20T15:01:03.746Z,29.10
2022-08-20T15:06:10.901Z,29.23
2022-08-20T15:11:23.311Z,29.17
2022-08-20T15:16:24.747Z,29.03
2022-08-20T15:21:29.916Z,29.00
2022-08-20T15:26:47.198Z,28.97
2022-08-20T15:31:48.571Z,28.86
2022-08-20T15:36:51.210Z,28.95
2022-08-20T15:41:52.809Z,28.80
2022-08-20T15:46:59.987Z,28.63
2022-08-20T15:52:01.971Z,28.30
2022-08-20T15:57:12.490Z,28.39
2022-08-20T16:02:46.022Z,28.11
2022-08-20T16:08:02.984Z,27.92
2022-08-20T16:13:20.388Z,27.87
2022-08-20T16:18:30.516Z,27.74
2022-08-20T16:23:35.382Z,27.60
2022-08-20T16:29:03.279Z,27.56
2022-08-20T16:34:42.307Z,27.54
2022-08-20T16:40:04.081Z,27.39
2022-08-20T16:45:11.379Z,27.29
2022-08-20T16:50:19.827Z,27.21
2022-08-20T16:55:23.011Z,27.17
2022-08-20T17:00:30.262Z,27.07
2022-08-20T17:05:53.285Z,26.88
2022-08-20T17:11:05.635Z,26.69
2022-08-20T17:16:13.119Z,26.64
2022-08-20T17:21:22.898Z,26.66
2022-08-20T17:26:31.947Z,26.58
2022-08-20T17:31:40.896Z,26.43
2022-08-20T17:37:02.674Z,26.31
2022-08-20T17:42:08.963Z,26.10
2022-08-20T17:47:18.493Z,26.01
2022-08-20T17:52:28.237Z,25.98
2022-08-20T17:57:36.906Z,25.79
2022-08-20T18:02:38.254Z,25.57
2022-08-20T18:07:50.687Z,25.48
2022-08-20T18:13:06.616Z,25.45
2022-08-20T18:18:23.199Z,25.27
2022-08-20T18:23:33.032Z,25.11
2022-08-20T18:28:41.420Z,24.93
2022-08-20T18:33:43.447Z,24.75
2022-08-20T18:39:05.683Z,24.69
2022-08-20T18:44:13.638Z,24.73
2022-08-20T18:49:25.511Z,24.65
2022-08-20T18:54:32.470Z,24.58
2022-08-20T18:59:40.731Z,24.47
2022-08-20T19:04:46.810Z,24.48
2022-08-20T19:10:27.596Z,24.28
2022-08-20T19:15:32.336Z,24.22
2022-08-20T19:20:36.475Z,24.15
2022-08-20T19:25:48.285Z,24.03
2022-08-20T19:30:51.303Z,23.88
2022-08-20T19:35:52.691Z,23.87
2022-08-20T19:40:54.079Z,23.70
2022-08-20T19:46:15.650Z,23.60
2022-08-20T19:51:35.507Z,23.39
2022-08-20T19:56:42.205Z,23.26
2022-08-20T20:02:00.137Z,23.22
2022-08-20T20:07:02.171Z,23.14
2022-08-20T20:12:10.795Z,23.07
2022-08-20T20:17:29.922Z,22.92
2022-08-20T20:22:35.922Z,22.95
2022-08-20T20:27:37.778Z,22.97
2022-08-20T20:32:43.981Z,23.01
2022-08-20T20:37:56.349Z,22.99
2022-08-20T20:43:06.530Z,22.84
2022-08-20T20:48:14.879Z,22.67
2022-08-20T20:53:35.135Z,22.78
2022-08-20T20:58:55.807Z,22.73
2022-08-20T21:03:57.524Z,22.70
2022-08-20T21:08:58.919Z,22.80
2022-08-20T21:14:00.336Z,22.75
2022-08-20T21:19:05.217Z,22.85
2022-08-20T21:24:08.124Z,22.79
2022-08-20T21:29:13.018Z,22.83
2022-08-20T21:34:15.627Z,22.86
2022-08-20T21:39:17.042Z,22.68
2022-08-20T21:44:25.004Z,22.75
2022-08-20T21:49:28.247Z,22.78
2022-08-20T21:54:29.785Z,22.79
2022-08-20T21:59:33.863Z,22.69
2022-08-20T22:04:35.783Z,22.75
2022-08-20T22:09:38.830Z,22.75
2022-08-20T22:14:40.221Z,22.59
2022-08-20T22:19:41.701Z,22.65
2022-08-20T22:24:45.568Z,22.63
2022-08-20T22:29:46.921Z,22.54
2022-08-20T22:34:48.471Z,22.45
2022-08-20T22:39:49.848Z,22.49
2022-08-20T22:44:51.418Z,22.44
2022-08-20T22:49:53.715Z,22.36
2022-08-20T22:54:55.693Z,22.38
2022-08-20T22:59:57.119Z,22.33
2022-08-20T23:04:58.545Z,22.24
2022-08-20T23:09:59.939Z,22.24
2022-08-20T23:15:01.427Z,22.22
2022-08-20T23:20:04.622Z,22.16
2022-08-20T23:25:07.620Z,22.03
2022-08-20T23:30:09.508Z,22.02
2022-08-20T23:35:12.080Z,22.01
2022-08-20T23:40:15.795Z,22.05
2022-08-20T23:45:17.992Z,21.99
2022-08-20T23:50:24.262Z,21.92
2022-08-20T23:55:25.933Z,21.98
